地図

経路データ

SID SEASON NUMBER BASIN SUBBASIN NAME ISO_TIME NATURE LAT LON WMO_WIND WMO_PRES WMO_AGENCY TRACK_TYPE DIST2LAND LANDFALL IFLAG USA_AGENCY USA_ATCF_ID USA_LAT USA_LON USA_RECORD USA_STATUS USA_WIND USA_PRES USA_SSHS USA_R34_NE USA_R34_SE USA_R34_SW USA_R34_NW USA_R50_NE USA_R50_SE USA_R50_SW USA_R50_NW USA_R64_NE USA_R64_SE USA_R64_SW USA_R64_NW USA_POCI USA_ROCI USA_RMW USA_EYE TOKYO_LAT TOKYO_LON TOKYO_GRADE TOKYO_WIND TOKYO_PRES TOKYO_R50_DIR TOKYO_R50_LONG TOKYO_R50_SHORT TOKYO_R30_DIR TOKYO_R30_LONG TOKYO_R30_SHORT TOKYO_LAND CMA_LAT CMA_LON CMA_CAT CMA_WIND CMA_PRES HKO_LAT HKO_LON HKO_CAT HKO_WIND HKO_PRES NEWDELHI_LAT NEWDELHI_LON NEWDELHI_GRADE NEWDELHI_WIND NEWDELHI_PRES NEWDELHI_CI NEWDELHI_DP NEWDELHI_POCI REUNION_LAT REUNION_LON REUNION_TYPE REUNION_WIND REUNION_PRES REUNION_TNUM REUNION_CI REUNION_RMW REUNION_R34_NE REUNION_R34_SE REUNION_R34_SW REUNION_R34_NW REUNION_R50_NE REUNION_R50_SE REUNION_R50_SW REUNION_R50_NW REUNION_R64_NE REUNION_R64_SE REUNION_R64_SW REUNION_R64_NW BOM_LAT BOM_LON BOM_TYPE BOM_WIND BOM_PRES BOM_TNUM BOM_CI BOM_RMW BOM_R34_NE BOM_R34_SE BOM_R34_SW BOM_R34_NW BOM_R50_NE BOM_R50_SE BOM_R50_SW BOM_R50_NW BOM_R64_NE BOM_R64_SE BOM_R64_SW BOM_R64_NW BOM_ROCI BOM_POCI BOM_EYE BOM_POS_METHOD BOM_PRES_METHOD NADI_LAT NADI_LON NADI_CAT NADI_WIND NADI_PRES WELLINGTON_LAT WELLINGTON_LON WELLINGTON_WIND WELLINGTON_PRES DS824_LAT DS824_LON DS824_STAGE DS824_WIND DS824_PRES TD9636_LAT TD9636_LON TD9636_STAGE TD9636_WIND TD9636_PRES TD9635_LAT TD9635_LON TD9635_WIND TD9635_PRES TD9635_ROCI NEUMANN_LAT NEUMANN_LON NEUMANN_CLASS NEUMANN_WIND NEUMANN_PRES MLC_LAT MLC_LON MLC_CLASS MLC_WIND MLC_PRES USA_GUST BOM_GUST BOM_GUST_PER REUNION_GUST REUNION_GUST_PER USA_SEAHGT USA_SEARAD_NE USA_SEARAD_SE USA_SEARAD_SW USA_SEARAD_NW STORM_SPEED STORM_DIR
1934050S13147 1934 13 SP EA NOT_NAMED 1934-02-18 23:00:00 NR -12.8500 146.600 bom main 279 251 ______O___O___ -1 -12.8000 146.700 -12.9000 146.500 7 16 182
1934050S13147 1934 13 SP EA NOT_NAMED 1934-02-19 00:00:00 TS -13.1211 146.575 main 251 170 ______P__OP___ -1 -13.0667 146.640 -13.1000 146.700 TC -13.1861 146.447 7 17 189
1934050S13147 1934 13 SP EA NOT_NAMED 1934-02-19 03:00:00 TS -13.9399 146.414 main 170 112 ______P__PP___ -1 -13.8669 146.468 -13.8997 146.517 TC -14.0397 146.293 7 17 190
1934050S13147 1934 13 SP EA NOT_NAMED 1934-02-19 06:00:00 TS -14.7521 146.271 main 109 85 ______P__PP___ -1 -14.6670 146.323 -14.6995 146.356 TC -14.8767 146.155 7 16 188
1934050S13147 1934 13 SP EA NOT_NAMED 1934-02-19 09:00:00 TS -15.5502 146.172 main 91 65 ______P__PP___ -1 -15.4668 146.227 -15.4995 146.242 TC -15.6842 146.048 7 16 186
1934050S13147 1934 13 SP EA NOT_NAMED 1934-02-19 11:00:00 TS -16.0777 146.135 bom main 64 64 ______O__PO___ -1 -16.0000 146.200 -16.0331 146.205 TC -16.2000 146.000 7 16 182
1934050S13147 1934 13 SP EA NOT_NAMED 1934-02-19 12:00:00 TS -16.3389 146.128 main 64 21 ______P__OP___ -1 -16.2666 146.200 -16.3000 146.200 TC -16.4500 145.985 7 16 179
1934050S13147 1934 13 SP EA NOT_NAMED 1934-02-19 15:00:00 TS -17.1146 146.160 main 30 10 ______P__PP___ -1 -17.0665 146.253 -17.1012 146.247 TC -17.1762 145.978 7 16 175
1934050S13147 1934 13 SP EA NOT_NAMED 1934-02-19 18:00:00 TS -17.8848 146.262 main 23 10 ______P__PP___ -1 -17.8665 146.376 -17.9023 146.374 TC -17.8858 146.036 7 16 171
1934050S13147 1934 13 SP EA NOT_NAMED 1934-02-19 21:00:00 TS -18.6576 146.429 main 10 0 ______P__PP___ -1 -18.6666 146.555 -18.7022 146.564 TC -18.6040 146.167 7 16 167
1934050S13147 1934 13 SP EA NOT_NAMED 1934-02-19 23:00:00 TS -19.1781 146.572 1002 bom main 0 0 ______O__PO___ -1 -19.2000 146.700 1002 4 -19.2344 146.717 TC -19.1000 146.300 7 16 165
1934050S13147 1934 13 SP EA NOT_NAMED 1934-02-20 00:00:00 TS -19.4459 146.650 main 0 0 ______P__OP___ -1 -19.4723 146.774 -19.5000 146.800 TC 25 1002 -19.3653 146.376 7 17 163
1934050S13147 1934 13 SP EA NOT_NAMED 1934-02-20 03:00:00 TS -20.2582 146.921 main 0 0 ______P__PP___ -1 -20.2948 147.035 -20.2949 147.067 TC -20.1848 146.663 7 17 161
1934050S13147 1934 13 SP EA NOT_NAMED 1934-02-20 06:00:00 TS -21.0770 147.241 main 0 0 ______P__PP___ -1 -21.1212 147.344 -21.0871 147.359 TC -21.0226 147.020 7 18 159
1934050S13147 1934 13 SP EA NOT_NAMED 1934-02-20 09:00:00 TS -21.8931 147.595 main 0 0 ______P__PP___ -1 -21.9456 147.690 -21.8771 147.675 TC -21.8567 147.421 7 18 158
1934050S13147 1934 13 SP EA NOT_NAMED 1934-02-20 11:00:00 TS -22.4313 147.844 main 0 0 ______P__PO___ -1 -22.4913 147.935 -22.4026 147.897 TC -22.4000 147.700 7 18 157
1934050S13147 1934 13 SP EA NOT_NAMED 1934-02-20 12:00:00 TS -22.6987 147.970 main 0 0 ______P__PP___ -1 -22.7624 148.060 -22.6651 148.011 TC -22.6687 147.840 7 18 156
1934050S13147 1934 13 SP EA NOT_NAMED 1934-02-20 15:00:00 TS -23.4930 148.362 main 0 0 ______P__PP___ -1 -23.5657 148.440 -23.4513 148.365 TC -23.4620 148.280 7 17 155
1934050S13147 1934 13 SP EA NOT_NAMED 1934-02-20 18:00:00 TS -24.2706 148.759 main 0 0 ______P__PP___ -1 -24.3500 148.817 -24.2359 148.733 TC -24.2260 148.726 7 17 155
1934050S13147 1934 13 SP EA NOT_NAMED 1934-02-20 21:00:00 TS -25.0262 149.149 main 0 0 ______P__PP___ -1 -25.1097 149.177 -25.0188 149.113 TC -24.9481 149.148 7 16 155
1934050S13147 1934 13 SP EA NOT_NAMED 1934-02-20 23:00:00 TS -25.5080 149.394 bom main 0 0 ______O__PO___ -1 -25.6000 149.400 -25.5398 149.370 TC -25.4000 149.400 7 16 155
1934050S13147 1934 13 SP EA NOT_NAMED 1934-02-21 00:00:00 TS -25.7305 149.507 main 0 0 ______P__OP___ -1 -25.8397 149.505 -25.8000 149.500 TC -25.6038 149.512 7 14 157
1934050S13147 1934 13 SP EA NOT_NAMED 1934-02-21 03:00:00 NR -26.3554 149.802 main 0 0 ______P___P___ -1 -26.5384 149.795 TC -26.1724 149.808 7 13 158
1934050S13147 1934 13 SP EA NOT_NAMED 1934-02-21 06:00:00 NR -26.9627 150.054 main 0 0 ______P___P___ -1 -27.2097 150.051 TC -26.7156 150.057 7 13 161
1934050S13147 1934 13 SP EA NOT_NAMED 1934-02-21 09:00:00 NR -27.5706 150.274 main 0 0 ______P___P___ -1 -27.8579 150.277 TC -27.2834 150.270 7 13 163
1934050S13147 1934 13 SP EA NOT_NAMED 1934-02-21 11:00:00 NR -27.9897 150.407 main 0 0 ______P___O___ -1 -28.2794 150.414 TC -27.7000 150.400 7 13 165
1934050S13147 1934 13 SP EA NOT_NAMED 1934-02-21 12:00:00 NR -28.2061 150.471 main 0 0 ______P___P___ -1 -28.4874 150.479 TC -27.9248 150.462 7 14 166
1934050S13147 1934 13 SP EA NOT_NAMED 1934-02-21 15:00:00 NR -28.8815 150.653 main 0 0 ______P___P___ -1 -29.1021 150.662 TC -28.6608 150.643 7 14 167
1934050S13147 1934 13 SP EA NOT_NAMED 1934-02-21 18:00:00 NR -29.5873 150.824 main 0 0 ______P___P___ -1 -29.7062 150.832 TC -29.4685 150.816 7 15 168
1934050S13147 1934 13 SP EA NOT_NAMED 1934-02-21 21:00:00 NR -30.3121 150.990 main 0 0 ______P___P___ -1 -30.3036 150.994 TC -30.3206 150.987 7 15 169
1934050S13147 1934 13 SP EA NOT_NAMED 1934-02-21 23:00:00 NR -30.8000 151.100 bom main 0 ______O___O___ -1 -30.7000 151.100 TC -30.9000 151.100 7 15 169

デジタル台風データ・検索

IBTrACS Databaseについて

本データベースは、米国NOAAが公開する1842年以降の世界の熱帯低気圧のベストトラックデータアーカイブInternational Best Track Archive for Climate Stewardship (IBTrACS)を、ウェブで閲覧しやすい形式に変換したものです。

最終更新日:2021-11-26